createdAt,value
2022-09-23T00:02:07.754Z,7.38
2022-09-23T00:09:09.852Z,7.55
2022-09-23T00:16:13.976Z,7.05
2022-09-23T00:23:16.008Z,6.43
2022-09-23T00:30:18.698Z,7.90
2022-09-23T00:37:21.477Z,6.82
2022-09-23T00:44:47.458Z,7.50
2022-09-23T00:51:56.271Z,6.20
2022-09-23T00:58:58.313Z,7.03
2022-09-23T01:06:00.451Z,8.20
2022-09-23T01:13:21.115Z,7.07
2022-09-23T01:20:29.458Z,7.07
2022-09-23T01:27:53.328Z,9.82
2022-09-23T01:35:10.458Z,5.60
2022-09-23T01:42:17.640Z,6.10
2022-09-23T01:49:46.768Z,8.27
2022-09-23T01:56:53.404Z,8.02
2022-09-23T02:04:01.442Z,7.45
2022-09-23T02:11:08.156Z,5.65
2022-09-23T02:18:17.160Z,8.70
2022-09-23T02:25:20.972Z,8.40
2022-09-23T02:32:32.103Z,7.60
2022-09-23T02:40:15.678Z,7.05
2022-09-23T02:47:20.157Z,7.25
2022-09-23T02:54:27.943Z,9.75
2022-09-23T03:02:08.280Z,7.07
2022-09-23T03:16:37.744Z,10.50
2022-09-23T03:23:40.861Z,6.85
2022-09-23T03:30:44.039Z,9.13
2022-09-23T03:37:54.354Z,8.32
2022-09-23T03:44:57.569Z,15.02
2022-09-23T03:52:00.546Z,8.88
2022-09-23T03:59:02.729Z,10.82
2022-09-23T04:06:05.140Z,10.43
2022-09-23T04:13:07.435Z,10.52
2022-09-23T04:20:10.350Z,10.18
2022-09-23T04:27:12.253Z,16.52
2022-09-23T04:34:16.377Z,12.63
2022-09-23T04:41:19.238Z,18.00
2022-09-23T04:48:21.327Z,12.52
2022-09-23T04:55:23.387Z,14.55
2022-09-23T05:02:25.529Z,13.63
2022-09-23T05:09:27.760Z,20.20
2022-09-23T05:16:30.038Z,11.18
2022-09-23T05:23:33.939Z,12.75
2022-09-23T05:30:36.130Z,15.32
2022-09-23T05:37:38.678Z,11.43
2022-09-23T05:44:40.760Z,10.02
2022-09-23T05:51:42.789Z,12.02
2022-09-23T05:58:45.370Z,10.90
2022-09-23T06:05:48.769Z,8.73
2022-09-23T06:12:50.744Z,10.82
2022-09-23T06:19:52.553Z,9.35
2022-09-23T06:26:54.340Z,11.18
2022-09-23T06:34:08.441Z,9.38
2022-09-23T06:41:13.504Z,10.60
2022-09-23T06:48:15.444Z,14.63
2022-09-23T06:55:17.285Z,18.40
2022-09-23T07:02:19.324Z,12.48
2022-09-23T07:09:21.457Z,18.15
2022-09-23T07:16:23.444Z,18.27
2022-09-23T07:23:26.039Z,15.55
2022-09-23T07:30:27.942Z,16.77
2022-09-23T07:37:29.917Z,10.45
2022-09-23T07:44:33.019Z,8.65
2022-09-23T07:51:37.011Z,11.65
2022-09-23T07:58:39.182Z,10.60
2022-09-23T08:05:41.531Z,6.32
2022-09-23T08:12:43.410Z,5.38
2022-09-23T08:19:45.290Z,3.85
2022-09-23T08:26:48.062Z,3.55
2022-09-23T08:33:57.666Z,3.13
2022-09-23T08:48:22.599Z,3.10
2022-09-23T08:55:33.364Z,2.60
2022-09-23T09:02:36.696Z,2.80
2022-09-23T09:09:58.741Z,3.55
2022-09-23T09:17:04.714Z,3.63
2022-09-23T09:24:17.094Z,2.58
2022-09-23T09:31:22.895Z,2.60
2022-09-23T09:38:24.803Z,3.40
2022-09-23T09:45:57.824Z,4.78
2022-09-23T09:53:28.340Z,4.25
2022-09-23T10:00:30.490Z,5.20
2022-09-23T10:07:33.837Z,4.25
2022-09-23T10:14:36.519Z,6.05
2022-09-23T10:21:38.670Z,2.35
2022-09-23T10:28:44.926Z,3.20
2022-09-23T10:35:57.329Z,2.40
2022-09-23T10:43:20.989Z,2.00
2022-09-23T10:50:40.287Z,1.80
2022-09-23T10:58:04.694Z,1.90
2022-09-23T11:05:31.070Z,1.80
2022-09-23T11:12:42.816Z,2.67
2022-09-23T11:19:56.894Z,1.98
2022-09-23T11:27:21.809Z,1.70
2022-09-23T11:34:52.563Z,1.70
2022-09-23T11:41:59.572Z,1.70
2022-09-23T11:49:28.564Z,1.60
2022-09-23T11:56:45.849Z,1.80
2022-09-23T12:03:57.036Z,4.32
2022-09-23T12:11:18.028Z,2.95
2022-09-23T12:18:36.068Z,2.65
2022-09-23T12:25:46.787Z,1.90
2022-09-23T12:32:48.803Z,1.90
2022-09-23T12:39:50.645Z,2.60
2022-09-23T12:47:15.187Z,1.80
2022-09-23T12:54:24.471Z,3.40
2022-09-23T13:08:29.410Z,2.15
2022-09-23T13:15:36.074Z,1.77
2022-09-23T13:23:04.092Z,5.63
2022-09-23T13:30:25.968Z,1.80
2022-09-23T13:37:32.008Z,1.70
2022-09-23T13:44:33.954Z,1.80
2022-09-23T13:51:37.118Z,1.85
2022-09-23T13:58:39.239Z,1.90
2022-09-23T14:05:42.058Z,2.10
2022-09-23T14:12:45.388Z,3.40
2022-09-23T14:19:48.061Z,1.95
2022-09-23T14:26:57.652Z,2.63
2022-09-23T14:33:59.850Z,3.35
2022-09-23T14:41:17.492Z,2.50
2022-09-23T14:48:21.749Z,2.78
2022-09-23T14:55:28.057Z,2.20
2022-09-23T15:02:35.509Z,2.78
2022-09-23T15:09:41.619Z,5.38
2022-09-23T15:16:43.812Z,2.50
2022-09-23T15:23:48.062Z,5.93
2022-09-23T15:30:50.525Z,2.08
2022-09-23T15:37:56.133Z,3.20
2022-09-23T15:44:58.712Z,3.95
2022-09-23T15:52:01.662Z,3.88
2022-09-23T15:59:04.215Z,2.92
2022-09-23T16:06:06.603Z,4.43
2022-09-23T16:13:12.738Z,6.95
2022-09-23T16:20:18.190Z,4.45
2022-09-23T16:27:20.140Z,7.45
2022-09-23T16:34:22.128Z,5.63
2022-09-23T16:41:25.950Z,4.60
2022-09-23T16:48:27.842Z,4.70
2022-09-23T16:55:29.943Z,9.57
2022-09-23T17:02:50.318Z,5.07
2022-09-23T17:09:52.510Z,4.80
2022-09-23T17:16:54.521Z,4.32
2022-09-23T17:23:57.769Z,5.43
2022-09-23T17:31:02.163Z,6.43
2022-09-23T17:38:04.391Z,8.20
2022-09-23T17:45:07.135Z,6.32
2022-09-23T17:52:09.178Z,8.93
2022-09-23T17:59:12.985Z,5.72
2022-09-23T18:06:17.793Z,5.32
2022-09-23T18:13:19.840Z,6.35
2022-09-23T18:20:21.969Z,5.13
2022-09-23T18:27:24.291Z,6.13
2022-09-23T18:34:26.308Z,6.18
2022-09-23T18:41:28.742Z,7.55
2022-09-23T18:48:50.888Z,8.93
2022-09-23T18:56:02.509Z,7.72
2022-09-23T19:03:12.729Z,9.25
2022-09-23T19:10:19.332Z,7.38
2022-09-23T19:17:23.618Z,5.53
2022-09-23T19:24:29.678Z,8.00
2022-09-23T19:31:36.513Z,8.00
2022-09-23T19:38:49.369Z,8.48
2022-09-23T19:45:56.892Z,7.70
2022-09-23T19:53:01.606Z,8.00
2022-09-23T20:00:05.034Z,8.30
2022-09-23T20:07:10.944Z,9.27
2022-09-23T20:14:13.535Z,12.07
2022-09-23T20:21:16.175Z,11.38
2022-09-23T20:28:18.337Z,14.70
2022-09-23T20:35:20.302Z,13.73
2022-09-23T20:42:22.597Z,14.80
2022-09-23T20:49:26.741Z,13.45
2022-09-23T20:56:36.558Z,11.27
2022-09-23T21:03:46.243Z,15.40
2022-09-23T21:10:57.008Z,14.95
2022-09-23T21:18:01.577Z,21.98
2022-09-23T21:32:30.302Z,24.40
2022-09-23T21:39:35.421Z,21.80
2022-09-23T21:46:39.337Z,25.90
2022-09-23T21:53:44.562Z,23.73
2022-09-23T22:00:46.934Z,23.05
2022-09-23T22:07:48.974Z,24.38
2022-09-23T22:14:51.876Z,21.50
2022-09-23T22:21:54.236Z,26.40
2022-09-23T22:29:14.596Z,37.85
2022-09-23T22:36:16.538Z,38.95
2022-09-23T22:43:19.326Z,37.75
2022-09-23T22:50:21.378Z,49.53
2022-09-23T22:57:23.337Z,54.70
2022-09-23T23:04:25.861Z,55.10
2022-09-23T23:11:27.968Z,59.13
2022-09-23T23:18:39.207Z,56.35
2022-09-23T23:25:41.318Z,42.47
2022-09-23T23:32:43.449Z,39.60
2022-09-23T23:39:47.941Z,37.03
2022-09-23T23:46:50.170Z,32.53
2022-09-23T23:53:54.155Z,34.08
